Terminal Aerodrome Forecast
Issued by NWS

Home | Current Version | Previous Version | Graphics & Text | Print | Product List | Glossary On
Versions: 1 2 3 4 5 6 7 8 9 10 11 12 13 14 15 16 17 18
447
FTUS43 KIWX 011720
TAFSBN
TAF
KSBN 011720Z 0118/0218 03007KT 6SM BR BKN009 OVC015
     FM011900 03007KT P6SM OVC015
     FM020200 04008KT 3SM SHRA BR OVC007
     FM020700 03007KT 4SM BR OVC005
     FM021500 04008KT P6SM OVC015=

USA.gov is the U.S. government's official web portal to all federal, state and local government web resources and services.